الصفحة الرئيسية
METAR-TAF:

METAR-TAF

مطار :

كولورادو سيتي, أريزونا, الولايات المتحدة

دائرة عرض: 36-57-36N, خط طول: 113-00-50W, ارتفاع: 1486 متر

مراقبة الطقس الحالي

تاريخ ووقت الإصدار 17 دقيقة قبل الساعة 07:15UTC
ريح 3 عقدة من الشمال الشرقي
درجة الحرارة 7°درجة مئوية
الرطوبة 87%
ضغط 1018 hPa
الرؤية: 16.1 كم
ملبد بالغيوم على ارتفاع 5000 قدم
مطر خفيف

METAR: KAZC 210715Z AUTO 05003KT 10SM -RA OVC050 07/05 A3005 RMK AO2

زمن: 00:32 (07:32 UTC)


TAF: مفقودة

أرصاد الطقس والتوقعات من أكثر من 4000 مطار (تقارير الطقس للمطار METAR والتنبؤ بالطقس بالمطارTAF).

المحطات المتاحة هي النقط الصفراء والحمراء على الخريطة.

حرك المؤشر فوق النقطة لمعرفة اسم المحطة.

ثم انقر لمعرفة أرصاد وتوقعات الطقس.

لتغيير الخارطة: اضغط على الأزرار الخضراء مع رمز الصليب الأسود للتكبير. على الزر الأخضر مع شرطة للتصغير، أو على الأسهم الخضراء للخرائط المجاورة.


METAR-TAF: